sensor_id;sensor_type;location;lat;lon;timestamp;P1;durP1;ratioP1;P2;durP2;ratioP2
37559;SDS011;23398;50.928;7.084;2022-11-15T00:02:07;5.53;;;4.03;;
37559;SDS011;23398;50.928;7.084;2022-11-15T00:04:32;7.88;;;3.92;;
37559;SDS011;23398;50.928;7.084;2022-11-15T00:06:58;4.97;;;3.55;;
37559;SDS011;23398;50.928;7.084;2022-11-15T00:09:24;4.97;;;3.85;;
37559;SDS011;23398;50.928;7.084;2022-11-15T00:11:50;5.43;;;4.05;;
37559;SDS011;23398;50.928;7.084;2022-11-15T00:14:16;5.07;;;3.80;;
37559;SDS011;23398;50.928;7.084;2022-11-15T00:16:42;4.75;;;3.55;;
37559;SDS011;23398;50.928;7.084;2022-11-15T00:19:08;5.18;;;3.78;;
37559;SDS011;23398;50.928;7.084;2022-11-15T00:21:33;4.65;;;3.50;;
37559;SDS011;23398;50.928;7.084;2022-11-15T00:23:59;4.72;;;3.67;;
37559;SDS011;23398;50.928;7.084;2022-11-15T00:26:24;5.03;;;3.88;;
37559;SDS011;23398;50.928;7.084;2022-11-15T00:28:51;3.90;;;3.47;;
37559;SDS011;23398;50.928;7.084;2022-11-15T00:31:17;4.82;;;3.67;;
37559;SDS011;23398;50.928;7.084;2022-11-15T00:33:43;4.57;;;3.70;;
37559;SDS011;23398;50.928;7.084;2022-11-15T00:36:10;4.80;;;3.67;;
37559;SDS011;23398;50.928;7.084;2022-11-15T00:38:36;5.20;;;3.72;;
37559;SDS011;23398;50.928;7.084;2022-11-15T00:41:04;6.13;;;4.03;;
37559;SDS011;23398;50.928;7.084;2022-11-15T00:43:31;4.75;;;3.38;;
37559;SDS011;23398;50.928;7.084;2022-11-15T00:45:57;4.90;;;3.65;;
37559;SDS011;23398;50.928;7.084;2022-11-15T00:48:23;4.28;;;3.80;;
37559;SDS011;23398;50.928;7.084;2022-11-15T00:50:49;5.35;;;3.30;;
37559;SDS011;23398;50.928;7.084;2022-11-15T00:53:15;4.38;;;3.72;;
37559;SDS011;23398;50.928;7.084;2022-11-15T00:55:40;4.50;;;3.85;;
37559;SDS011;23398;50.928;7.084;2022-11-15T00:58:06;5.70;;;3.47;;
37559;SDS011;23398;50.928;7.084;2022-11-15T01:00:32;6.45;;;3.83;;
37559;SDS011;23398;50.928;7.084;2022-11-15T01:02:57;4.40;;;3.60;;
37559;SDS011;23398;50.928;7.084;2022-11-15T01:05:24;6.15;;;3.65;;
37559;SDS011;23398;50.928;7.084;2022-11-15T01:07:53;5.22;;;3.63;;
37559;SDS011;23398;50.928;7.084;2022-11-15T01:10:20;4.82;;;3.58;;
37559;SDS011;23398;50.928;7.084;2022-11-15T01:12:46;4.97;;;3.67;;
37559;SDS011;23398;50.928;7.084;2022-11-15T01:15:12;4.90;;;3.55;;
37559;SDS011;23398;50.928;7.084;2022-11-15T01:17:37;6.55;;;3.65;;
37559;SDS011;23398;50.928;7.084;2022-11-15T01:20:03;5.20;;;3.75;;
37559;SDS011;23398;50.928;7.084;2022-11-15T01:22:29;4.38;;;3.85;;
37559;SDS011;23398;50.928;7.084;2022-11-15T01:24:54;6.15;;;3.20;;
37559;SDS011;23398;50.928;7.084;2022-11-15T01:27:20;5.63;;;3.70;;
37559;SDS011;23398;50.928;7.084;2022-11-15T01:29:45;5.38;;;3.88;;
37559;SDS011;23398;50.928;7.084;2022-11-15T01:32:11;4.72;;;3.42;;
37559;SDS011;23398;50.928;7.084;2022-11-15T01:34:37;4.63;;;3.60;;
37559;SDS011;23398;50.928;7.084;2022-11-15T01:37:02;5.57;;;3.53;;
37559;SDS011;23398;50.928;7.084;2022-11-15T01:39:28;4.38;;;3.63;;
37559;SDS011;23398;50.928;7.084;2022-11-15T01:41:53;4.90;;;3.50;;
37559;SDS011;23398;50.928;7.084;2022-11-15T01:47:02;6.10;;;3.67;;
37559;SDS011;23398;50.928;7.084;2022-11-15T01:49:32;4.38;;;3.72;;
37559;SDS011;23398;50.928;7.084;2022-11-15T01:52:00;5.18;;;3.42;;
37559;SDS011;23398;50.928;7.084;2022-11-15T01:54:28;5.35;;;3.60;;
37559;SDS011;23398;50.928;7.084;2022-11-15T01:56:56;4.55;;;3.70;;
37559;SDS011;23398;50.928;7.084;2022-11-15T01:59:41;5.00;;;3.72;;
37559;SDS011;23398;50.928;7.084;2022-11-15T02:02:09;5.40;;;3.85;;
37559;SDS011;23398;50.928;7.084;2022-11-15T02:04:40;4.88;;;3.78;;
37559;SDS011;23398;50.928;7.084;2022-11-15T02:07:08;4.50;;;3.58;;
37559;SDS011;23398;50.928;7.084;2022-11-15T02:09:36;4.38;;;3.60;;
37559;SDS011;23398;50.928;7.084;2022-11-15T02:12:02;4.53;;;3.45;;
37559;SDS011;23398;50.928;7.084;2022-11-15T02:14:28;4.47;;;3.60;;
37559;SDS011;23398;50.928;7.084;2022-11-15T02:16:58;4.50;;;3.55;;
37559;SDS011;23398;50.928;7.084;2022-11-15T02:24:49;7.00;;;3.83;;
37559;SDS011;23398;50.928;7.084;2022-11-15T02:33:03;11.07;;;3.70;;
37559;SDS011;23398;50.928;7.084;2022-11-15T02:41:04;4.97;;;3.58;;
37559;SDS011;23398;50.928;7.084;2022-11-15T02:43:37;5.88;;;3.50;;
37559;SDS011;23398;50.928;7.084;2022-11-15T02:46:28;3.80;;;3.35;;
37559;SDS011;23398;50.928;7.084;2022-11-15T02:49:13;4.68;;;3.15;;
37559;SDS011;23398;50.928;7.084;2022-11-15T02:51:40;4.05;;;3.13;;
37559;SDS011;23398;50.928;7.084;2022-11-15T02:54:12;5.53;;;3.30;;
37559;SDS011;23398;50.928;7.084;2022-11-15T02:56:45;4.88;;;3.33;;
37559;SDS011;23398;50.928;7.084;2022-11-15T02:59:13;3.25;;;2.90;;
37559;SDS011;23398;50.928;7.084;2022-11-15T03:02:08;4.22;;;3.10;;
37559;SDS011;23398;50.928;7.084;2022-11-15T03:04:56;5.32;;;3.53;;
37559;SDS011;23398;50.928;7.084;2022-11-15T03:07:29;4.78;;;2.85;;
37559;SDS011;23398;50.928;7.084;2022-11-15T03:10:25;5.15;;;3.10;;
37559;SDS011;23398;50.928;7.084;2022-11-15T03:13:30;4.00;;;3.20;;
37559;SDS011;23398;50.928;7.084;2022-11-15T03:16:08;4.22;;;3.13;;
37559;SDS011;23398;50.928;7.084;2022-11-15T03:18:43;3.28;;;2.97;;
37559;SDS011;23398;50.928;7.084;2022-11-15T03:21:18;3.17;;;2.88;;
37559;SDS011;23398;50.928;7.084;2022-11-15T03:23:45;4.18;;;2.92;;
37559;SDS011;23398;50.928;7.084;2022-11-15T03:26:13;4.90;;;3.20;;
37559;SDS011;23398;50.928;7.084;2022-11-15T03:28:49;4.50;;;2.80;;
37559;SDS011;23398;50.928;7.084;2022-11-15T03:31:18;3.25;;;2.95;;
37559;SDS011;23398;50.928;7.084;2022-11-15T03:34:05;3.85;;;2.80;;
37559;SDS011;23398;50.928;7.084;2022-11-15T03:36:35;3.20;;;2.90;;
37559;SDS011;23398;50.928;7.084;2022-11-15T03:39:04;4.25;;;2.92;;
37559;SDS011;23398;50.928;7.084;2022-11-15T03:41:37;2.92;;;2.63;;
37559;SDS011;23398;50.928;7.084;2022-11-15T03:44:14;3.13;;;2.72;;
37559;SDS011;23398;50.928;7.084;2022-11-15T03:46:47;5.10;;;2.85;;
37559;SDS011;23398;50.928;7.084;2022-11-15T03:49:50;4.95;;;3.22;;
37559;SDS011;23398;50.928;7.084;2022-11-15T03:52:19;3.00;;;2.70;;
37559;SDS011;23398;50.928;7.084;2022-11-15T03:54:53;3.67;;;3.20;;
37559;SDS011;23398;50.928;7.084;2022-11-15T03:57:20;3.40;;;3.00;;
37559;SDS011;23398;50.928;7.084;2022-11-15T03:59:45;3.25;;;2.65;;
37559;SDS011;23398;50.928;7.084;2022-11-15T04:02:11;3.53;;;3.22;;
37559;SDS011;23398;50.928;7.084;2022-11-15T04:04:37;4.13;;;3.38;;
37559;SDS011;23398;50.928;7.084;2022-11-15T04:07:02;3.95;;;3.17;;
37559;SDS011;23398;50.928;7.084;2022-11-15T04:09:28;4.43;;;3.47;;
37559;SDS011;23398;50.928;7.084;2022-11-15T04:11:54;3.38;;;3.08;;
37559;SDS011;23398;50.928;7.084;2022-11-15T04:14:19;3.67;;;3.17;;
37559;SDS011;23398;50.928;7.084;2022-11-15T04:16:45;5.03;;;3.83;;
37559;SDS011;23398;50.928;7.084;2022-11-15T04:19:10;4.15;;;3.58;;
37559;SDS011;23398;50.928;7.084;2022-11-15T04:21:55;3.70;;;3.20;;
37559;SDS011;23398;50.928;7.084;2022-11-15T04:24:39;3.50;;;3.20;;
37559;SDS011;23398;50.928;7.084;2022-11-15T04:27:04;3.70;;;3.38;;
37559;SDS011;23398;50.928;7.084;2022-11-15T04:29:30;3.58;;;3.28;;
37559;SDS011;23398;50.928;7.084;2022-11-15T04:32:02;3.58;;;3.25;;
37559;SDS011;23398;50.928;7.084;2022-11-15T04:34:29;3.30;;;3.00;;
37559;SDS011;23398;50.928;7.084;2022-11-15T04:36:54;3.90;;;3.50;;
37559;SDS011;23398;50.928;7.084;2022-11-15T04:39:41;4.32;;;3.33;;
37559;SDS011;23398;50.928;7.084;2022-11-15T04:42:08;3.55;;;3.25;;
37559;SDS011;23398;50.928;7.084;2022-11-15T04:44:34;3.47;;;3.17;;
37559;SDS011;23398;50.928;7.084;2022-11-15T04:47:00;4.20;;;3.70;;
37559;SDS011;23398;50.928;7.084;2022-11-15T04:49:26;3.88;;;3.38;;
37559;SDS011;23398;50.928;7.084;2022-11-15T04:51:52;3.80;;;3.30;;
37559;SDS011;23398;50.928;7.084;2022-11-15T04:54:17;3.70;;;3.30;;
37559;SDS011;23398;50.928;7.084;2022-11-15T04:56:43;3.60;;;3.05;;
37559;SDS011;23398;50.928;7.084;2022-11-15T04:59:08;3.47;;;3.17;;
37559;SDS011;23398;50.928;7.084;2022-11-15T05:01:34;4.10;;;3.00;;
37559;SDS011;23398;50.928;7.084;2022-11-15T05:03:59;3.47;;;2.95;;
37559;SDS011;23398;50.928;7.084;2022-11-15T05:06:43;3.30;;;3.00;;
37559;SDS011;23398;50.928;7.084;2022-11-15T05:09:09;3.47;;;3.13;;
37559;SDS011;23398;50.928;7.084;2022-11-15T05:11:35;3.53;;;2.97;;
37559;SDS011;23398;50.928;7.084;2022-11-15T05:14:00;4.22;;;2.90;;
37559;SDS011;23398;50.928;7.084;2022-11-15T05:16:26;3.40;;;3.10;;
37559;SDS011;23398;50.928;7.084;2022-11-15T05:18:52;2.90;;;2.63;;
37559;SDS011;23398;50.928;7.084;2022-11-15T05:21:19;3.72;;;2.72;;
37559;SDS011;23398;50.928;7.084;2022-11-15T05:23:45;3.85;;;2.83;;
37559;SDS011;23398;50.928;7.084;2022-11-15T05:26:10;3.17;;;2.78;;
37559;SDS011;23398;50.928;7.084;2022-11-15T05:28:36;3.20;;;2.80;;
37559;SDS011;23398;50.928;7.084;2022-11-15T05:31:03;3.05;;;2.67;;
37559;SDS011;23398;50.928;7.084;2022-11-15T05:33:30;3.08;;;2.60;;
37559;SDS011;23398;50.928;7.084;2022-11-15T05:36:00;2.95;;;2.67;;
37559;SDS011;23398;50.928;7.084;2022-11-15T05:38:31;2.60;;;2.40;;
37559;SDS011;23398;50.928;7.084;2022-11-15T05:40:57;2.95;;;2.50;;
37559;SDS011;23398;50.928;7.084;2022-11-15T05:43:22;2.80;;;2.58;;
37559;SDS011;23398;50.928;7.084;2022-11-15T05:45:49;3.88;;;2.45;;
37559;SDS011;23398;50.928;7.084;2022-11-15T05:48:15;2.45;;;2.25;;
37559;SDS011;23398;50.928;7.084;2022-11-15T05:50:41;2.78;;;2.10;;
37559;SDS011;23398;50.928;7.084;2022-11-15T05:53:10;2.55;;;2.35;;
37559;SDS011;23398;50.928;7.084;2022-11-15T05:55:39;2.63;;;2.42;;
37559;SDS011;23398;50.928;7.084;2022-11-15T05:58:05;2.58;;;2.33;;
37559;SDS011;23398;50.928;7.084;2022-11-15T06:00:31;2.40;;;2.13;;
37559;SDS011;23398;50.928;7.084;2022-11-15T06:02:57;2.95;;;2.30;;
37559;SDS011;23398;50.928;7.084;2022-11-15T06:05:23;3.45;;;2.20;;
37559;SDS011;23398;50.928;7.084;2022-11-15T06:07:48;3.05;;;2.30;;
37559;SDS011;23398;50.928;7.084;2022-11-15T06:10:14;2.40;;;2.15;;
37559;SDS011;23398;50.928;7.084;2022-11-15T06:12:39;2.72;;;2.10;;
37559;SDS011;23398;50.928;7.084;2022-11-15T06:15:05;2.40;;;2.03;;
37559;SDS011;23398;50.928;7.084;2022-11-15T06:17:31;2.33;;;2.10;;
37559;SDS011;23398;50.928;7.084;2022-11-15T06:19:57;2.30;;;2.10;;
37559;SDS011;23398;50.928;7.084;2022-11-15T06:22:22;2.20;;;1.90;;
37559;SDS011;23398;50.928;7.084;2022-11-15T06:24:48;2.22;;;2.03;;
37559;SDS011;23398;50.928;7.084;2022-11-15T06:27:13;2.42;;;2.13;;
37559;SDS011;23398;50.928;7.084;2022-11-15T06:29:39;2.60;;;2.15;;
37559;SDS011;23398;50.928;7.084;2022-11-15T06:32:04;2.50;;;2.30;;
37559;SDS011;23398;50.928;7.084;2022-11-15T06:34:30;3.03;;;2.50;;
37559;SDS011;23398;50.928;7.084;2022-11-15T06:36:55;3.00;;;2.70;;
37559;SDS011;23398;50.928;7.084;2022-11-15T06:39:21;2.40;;;2.20;;
37559;SDS011;23398;50.928;7.084;2022-11-15T06:41:46;3.05;;;2.58;;
37559;SDS011;23398;50.928;7.084;2022-11-15T06:44:12;3.70;;;2.30;;
37559;SDS011;23398;50.928;7.084;2022-11-15T06:46:38;3.10;;;2.45;;
37559;SDS011;23398;50.928;7.084;2022-11-15T06:49:03;3.33;;;2.15;;
37559;SDS011;23398;50.928;7.084;2022-11-15T06:51:29;2.55;;;2.35;;
37559;SDS011;23398;50.928;7.084;2022-11-15T06:53:54;4.32;;;2.45;;
37559;SDS011;23398;50.928;7.084;2022-11-15T06:56:20;3.38;;;2.30;;
37559;SDS011;23398;50.928;7.084;2022-11-15T06:58:45;2.75;;;2.45;;
37559;SDS011;23398;50.928;7.084;2022-11-15T07:01:11;2.70;;;2.22;;
37559;SDS011;23398;50.928;7.084;2022-11-15T07:03:38;2.60;;;2.40;;
37559;SDS011;23398;50.928;7.084;2022-11-15T07:06:05;3.20;;;2.47;;
37559;SDS011;23398;50.928;7.084;2022-11-15T07:08:31;4.38;;;2.30;;
37559;SDS011;23398;50.928;7.084;2022-11-15T07:11:00;3.10;;;2.30;;
37559;SDS011;23398;50.928;7.084;2022-11-15T07:13:28;3.05;;;2.38;;
37559;SDS011;23398;50.928;7.084;2022-11-15T07:15:55;2.83;;;2.33;;
37559;SDS011;23398;50.928;7.084;2022-11-15T07:18:20;2.65;;;2.00;;
37559;SDS011;23398;50.928;7.084;2022-11-15T07:20:46;2.83;;;1.95;;
37559;SDS011;23398;50.928;7.084;2022-11-15T07:23:11;2.20;;;1.83;;
37559;SDS011;23398;50.928;7.084;2022-11-15T07:25:37;2.50;;;1.80;;
37559;SDS011;23398;50.928;7.084;2022-11-15T07:28:03;2.28;;;1.77;;
37559;SDS011;23398;50.928;7.084;2022-11-15T07:30:28;3.08;;;1.65;;
37559;SDS011;23398;50.928;7.084;2022-11-15T07:32:57;2.00;;;1.80;;
37559;SDS011;23398;50.928;7.084;2022-11-15T07:35:24;1.98;;;1.70;;
37559;SDS011;23398;50.928;7.084;2022-11-15T07:37:58;2.22;;;1.90;;
37559;SDS011;23398;50.928;7.084;2022-11-15T07:40:26;3.03;;;1.60;;
37559;SDS011;23398;50.928;7.084;2022-11-15T07:42:58;2.15;;;1.80;;
37559;SDS011;23398;50.928;7.084;2022-11-15T07:45:25;2.40;;;1.70;;
37559;SDS011;23398;50.928;7.084;2022-11-15T07:47:51;1.95;;;1.73;;
37559;SDS011;23398;50.928;7.084;2022-11-15T07:50:17;2.05;;;1.65;;
37559;SDS011;23398;50.928;7.084;2022-11-15T07:52:43;1.90;;;1.67;;
37559;SDS011;23398;50.928;7.084;2022-11-15T07:55:09;2.08;;;1.77;;
37559;SDS011;23398;50.928;7.084;2022-11-15T07:57:35;2.63;;;1.58;;
37559;SDS011;23398;50.928;7.084;2022-11-15T08:00:00;1.83;;;1.63;;
37559;SDS011;23398;50.928;7.084;2022-11-15T08:02:27;2.58;;;1.63;;
37559;SDS011;23398;50.928;7.084;2022-11-15T08:04:52;2.60;;;1.60;;
37559;SDS011;23398;50.928;7.084;2022-11-15T08:07:18;1.50;;;1.30;;
37559;SDS011;23398;50.928;7.084;2022-11-15T08:09:43;3.13;;;1.50;;
37559;SDS011;23398;50.928;7.084;2022-11-15T08:12:09;2.03;;;1.52;;
37559;SDS011;23398;50.928;7.084;2022-11-15T08:14:35;1.70;;;1.40;;
37559;SDS011;23398;50.928;7.084;2022-11-15T08:17:00;1.60;;;1.35;;
37559;SDS011;23398;50.928;7.084;2022-11-15T08:19:26;2.05;;;1.45;;
37559;SDS011;23398;50.928;7.084;2022-11-15T08:21:52;2.25;;;1.42;;
37559;SDS011;23398;50.928;7.084;2022-11-15T08:24:17;1.80;;;1.50;;
37559;SDS011;23398;50.928;7.084;2022-11-15T08:26:43;2.42;;;1.40;;
37559;SDS011;23398;50.928;7.084;2022-11-15T08:29:08;2.35;;;1.40;;
37559;SDS011;23398;50.928;7.084;2022-11-15T08:31:34;2.88;;;1.58;;
37559;SDS011;23398;50.928;7.084;2022-11-15T08:34:04;1.65;;;1.33;;
37559;SDS011;23398;50.928;7.084;2022-11-15T08:36:30;2.75;;;1.30;;
37559;SDS011;23398;50.928;7.084;2022-11-15T08:38:56;1.75;;;1.30;;
37559;SDS011;23398;50.928;7.084;2022-11-15T08:41:26;2.10;;;1.40;;
37559;SDS011;23398;50.928;7.084;2022-11-15T08:43:56;1.98;;;1.40;;
37559;SDS011;23398;50.928;7.084;2022-11-15T08:46:22;1.60;;;1.40;;
37559;SDS011;23398;50.928;7.084;2022-11-15T08:48:48;2.58;;;1.40;;
37559;SDS011;23398;50.928;7.084;2022-11-15T08:51:13;1.75;;;1.40;;
37559;SDS011;23398;50.928;7.084;2022-11-15T08:53:39;1.92;;;1.52;;
37559;SDS011;23398;50.928;7.084;2022-11-15T08:56:09;1.60;;;1.33;;
37559;SDS011;23398;50.928;7.084;2022-11-15T08:58:36;1.65;;;1.40;;
37559;SDS011;23398;50.928;7.084;2022-11-15T09:01:01;2.85;;;1.75;;
37559;SDS011;23398;50.928;7.084;2022-11-15T09:03:28;2.13;;;1.40;;
37559;SDS011;23398;50.928;7.084;2022-11-15T09:05:57;1.50;;;1.40;;
37559;SDS011;23398;50.928;7.084;2022-11-15T09:08:23;2.42;;;1.30;;
37559;SDS011;23398;50.928;7.084;2022-11-15T09:10:49;2.13;;;1.50;;
37559;SDS011;23398;50.928;7.084;2022-11-15T09:13:15;3.03;;;1.38;;
37559;SDS011;23398;50.928;7.084;2022-11-15T09:15:41;1.83;;;1.40;;
37559;SDS011;23398;50.928;7.084;2022-11-15T09:18:06;1.90;;;1.40;;
37559;SDS011;23398;50.928;7.084;2022-11-15T09:20:32;2.33;;;1.30;;
37559;SDS011;23398;50.928;7.084;2022-11-15T09:23:01;1.85;;;1.10;;
37559;SDS011;23398;50.928;7.084;2022-11-15T09:25:28;1.20;;;1.10;;
37559;SDS011;23398;50.928;7.084;2022-11-15T09:27:54;1.42;;;1.10;;
37559;SDS011;23398;50.928;7.084;2022-11-15T09:30:20;1.98;;;1.30;;
37559;SDS011;23398;50.928;7.084;2022-11-15T09:32:46;1.83;;;1.15;;
37559;SDS011;23398;50.928;7.084;2022-11-15T09:35:11;1.20;;;1.10;;
37559;SDS011;23398;50.928;7.084;2022-11-15T09:37:37;1.65;;;1.02;;
37559;SDS011;23398;50.928;7.084;2022-11-15T09:40:02;1.10;;;1.00;;
37559;SDS011;23398;50.928;7.084;2022-11-15T09:42:39;1.95;;;1.00;;
37559;SDS011;23398;50.928;7.084;2022-11-15T09:45:12;1.17;;;1.00;;
37559;SDS011;23398;50.928;7.084;2022-11-15T09:51:04;1.33;;;0.98;;
37559;SDS011;23398;50.928;7.084;2022-11-15T09:53:41;1.10;;;0.85;;
37559;SDS011;23398;50.928;7.084;2022-11-15T10:01:49;1.65;;;1.10;;
37559;SDS011;23398;50.928;7.084;2022-11-15T10:04:29;2.70;;;1.10;;
37559;SDS011;23398;50.928;7.084;2022-11-15T10:07:03;1.02;;;0.93;;
37559;SDS011;23398;50.928;7.084;2022-11-15T10:12:45;1.60;;;1.10;;
37559;SDS011;23398;50.928;7.084;2022-11-15T10:15:15;2.67;;;1.20;;
37559;SDS011;23398;50.928;7.084;2022-11-15T10:20:27;1.67;;;1.00;;
37559;SDS011;23398;50.928;7.084;2022-11-15T10:22:56;1.02;;;0.93;;
37559;SDS011;23398;50.928;7.084;2022-11-15T10:25:25;1.13;;;0.95;;
37559;SDS011;23398;50.928;7.084;2022-11-15T10:27:57;0.80;;;0.80;;
37559;SDS011;23398;50.928;7.084;2022-11-15T10:30:31;2.92;;;1.00;;
37559;SDS011;23398;50.928;7.084;2022-11-15T10:33:38;1.67;;;0.90;;
37559;SDS011;23398;50.928;7.084;2022-11-15T10:41:13;1.23;;;0.80;;
37559;SDS011;23398;50.928;7.084;2022-11-15T10:43:39;2.63;;;1.02;;
37559;SDS011;23398;50.928;7.084;2022-11-15T10:46:21;1.95;;;0.80;;
37559;SDS011;23398;50.928;7.084;2022-11-15T10:48:48;1.33;;;0.63;;
37559;SDS011;23398;50.928;7.084;2022-11-15T10:51:27;2.67;;;0.85;;
37559;SDS011;23398;50.928;7.084;2022-11-15T10:53:57;2.22;;;0.80;;
37559;SDS011;23398;50.928;7.084;2022-11-15T10:56:25;1.38;;;0.80;;
37559;SDS011;23398;50.928;7.084;2022-11-15T10:58:55;0.60;;;0.60;;
37559;SDS011;23398;50.928;7.084;2022-11-15T11:01:23;3.10;;;0.80;;
37559;SDS011;23398;50.928;7.084;2022-11-15T11:03:58;1.25;;;0.70;;
37559;SDS011;23398;50.928;7.084;2022-11-15T11:06:24;0.80;;;0.75;;
37559;SDS011;23398;50.928;7.084;2022-11-15T11:09:00;1.00;;;0.70;;
37559;SDS011;23398;50.928;7.084;2022-11-15T11:11:44;1.10;;;0.73;;
37559;SDS011;23398;50.928;7.084;2022-11-15T11:14:11;1.55;;;0.85;;
37559;SDS011;23398;50.928;7.084;2022-11-15T11:16:51;1.05;;;0.80;;
37559;SDS011;23398;50.928;7.084;2022-11-15T11:22:16;1.70;;;0.90;;
37559;SDS011;23398;50.928;7.084;2022-11-15T11:30:20;1.15;;;0.80;;
37559;SDS011;23398;50.928;7.084;2022-11-15T11:32:58;2.28;;;0.77;;
37559;SDS011;23398;50.928;7.084;2022-11-15T11:35:43;5.13;;;0.90;;
37559;SDS011;23398;50.928;7.084;2022-11-15T11:41:07;1.42;;;0.77;;
37559;SDS011;23398;50.928;7.084;2022-11-15T11:49:02;0.60;;;0.50;;
37559;SDS011;23398;50.928;7.084;2022-11-15T11:51:39;1.20;;;0.57;;
37559;SDS011;23398;50.928;7.084;2022-11-15T11:54:14;0.95;;;0.88;;
37559;SDS011;23398;50.928;7.084;2022-11-15T11:56:58;2.28;;;0.73;;
37559;SDS011;23398;50.928;7.084;2022-11-15T12:01:53;1.35;;;0.80;;
37559;SDS011;23398;50.928;7.084;2022-11-15T12:09:38;1.55;;;0.80;;
37559;SDS011;23398;50.928;7.084;2022-11-15T12:12:27;1.75;;;0.80;;
37559;SDS011;23398;50.928;7.084;2022-11-15T12:17:35;1.48;;;0.70;;
37559;SDS011;23398;50.928;7.084;2022-11-15T12:20:04;1.58;;;0.80;;
37559;SDS011;23398;50.928;7.084;2022-11-15T12:22:46;2.03;;;1.33;;
37559;SDS011;23398;50.928;7.084;2022-11-15T12:25:33;1.20;;;0.80;;
37559;SDS011;23398;50.928;7.084;2022-11-15T12:28:15;1.52;;;0.80;;
37559;SDS011;23398;50.928;7.084;2022-11-15T12:31:04;1.85;;;0.90;;
37559;SDS011;23398;50.928;7.084;2022-11-15T12:33:43;2.22;;;0.80;;
37559;SDS011;23398;50.928;7.084;2022-11-15T12:36:12;2.33;;;0.77;;
37559;SDS011;23398;50.928;7.084;2022-11-15T12:41:33;1.70;;;0.90;;
37559;SDS011;23398;50.928;7.084;2022-11-15T12:44:01;3.30;;;0.90;;
37559;SDS011;23398;50.928;7.084;2022-11-15T13:04:46;1.95;;;0.88;;
37559;SDS011;23398;50.928;7.084;2022-11-15T13:09:59;2.33;;;1.20;;
37559;SDS011;23398;50.928;7.084;2022-11-15T13:14:56;1.73;;;1.10;;
37559;SDS011;23398;50.928;7.084;2022-11-15T13:17:34;1.30;;;1.10;;
37559;SDS011;23398;50.928;7.084;2022-11-15T13:33:23;1.50;;;1.35;;
37559;SDS011;23398;50.928;7.084;2022-11-15T13:35:54;2.40;;;1.40;;
37559;SDS011;23398;50.928;7.084;2022-11-15T13:40:50;2.65;;;1.40;;
37559;SDS011;23398;50.928;7.084;2022-11-15T13:48:32;2.00;;;1.30;;
37559;SDS011;23398;50.928;7.084;2022-11-15T13:51:04;1.35;;;1.13;;
37559;SDS011;23398;50.928;7.084;2022-11-15T13:53:40;1.65;;;1.38;;
37559;SDS011;23398;50.928;7.084;2022-11-15T13:56:11;2.20;;;1.30;;
37559;SDS011;23398;50.928;7.084;2022-11-15T13:58:38;1.80;;;1.35;;
37559;SDS011;23398;50.928;7.084;2022-11-15T14:01:05;2.22;;;1.50;;
37559;SDS011;23398;50.928;7.084;2022-11-15T14:03:32;2.25;;;1.33;;
37559;SDS011;23398;50.928;7.084;2022-11-15T14:06:02;2.13;;;1.40;;
37559;SDS011;23398;50.928;7.084;2022-11-15T14:08:28;3.22;;;1.30;;
37559;SDS011;23398;50.928;7.084;2022-11-15T14:11:14;1.50;;;1.23;;
37559;SDS011;23398;50.928;7.084;2022-11-15T14:13:42;2.28;;;1.30;;
37559;SDS011;23398;50.928;7.084;2022-11-15T14:16:31;1.95;;;1.42;;
37559;SDS011;23398;50.928;7.084;2022-11-15T14:19:05;2.42;;;1.60;;
37559;SDS011;23398;50.928;7.084;2022-11-15T14:21:35;1.83;;;1.33;;
37559;SDS011;23398;50.928;7.084;2022-11-15T14:24:20;1.65;;;1.30;;
37559;SDS011;23398;50.928;7.084;2022-11-15T14:26:46;2.10;;;1.25;;
37559;SDS011;23398;50.928;7.084;2022-11-15T14:29:22;1.33;;;1.23;;
37559;SDS011;23398;50.928;7.084;2022-11-15T14:31:47;2.42;;;1.25;;
37559;SDS011;23398;50.928;7.084;2022-11-15T14:34:13;3.05;;;1.40;;
37559;SDS011;23398;50.928;7.084;2022-11-15T14:36:38;2.63;;;1.25;;
37559;SDS011;23398;50.928;7.084;2022-11-15T14:39:04;1.58;;;1.25;;
37559;SDS011;23398;50.928;7.084;2022-11-15T14:41:33;1.42;;;1.25;;
37559;SDS011;23398;50.928;7.084;2022-11-15T14:44:02;1.88;;;1.20;;
37559;SDS011;23398;50.928;7.084;2022-11-15T14:46:29;1.20;;;1.02;;
37559;SDS011;23398;50.928;7.084;2022-11-15T14:48:55;2.45;;;1.40;;
37559;SDS011;23398;50.928;7.084;2022-11-15T14:51:20;1.80;;;1.10;;
37559;SDS011;23398;50.928;7.084;2022-11-15T14:53:46;3.22;;;1.40;;
37559;SDS011;23398;50.928;7.084;2022-11-15T14:56:12;1.65;;;1.10;;
37559;SDS011;23398;50.928;7.084;2022-11-15T14:58:38;2.53;;;1.52;;
37559;SDS011;23398;50.928;7.084;2022-11-15T15:01:13;2.70;;;1.20;;
37559;SDS011;23398;50.928;7.084;2022-11-15T15:03:45;1.35;;;1.08;;
37559;SDS011;23398;50.928;7.084;2022-11-15T15:06:10;2.05;;;1.20;;
37559;SDS011;23398;50.928;7.084;2022-11-15T15:08:37;1.75;;;1.20;;
37559;SDS011;23398;50.928;7.084;2022-11-15T15:11:06;1.48;;;1.30;;
37559;SDS011;23398;50.928;7.084;2022-11-15T15:13:38;2.70;;;1.30;;
37559;SDS011;23398;50.928;7.084;2022-11-15T15:16:04;2.13;;;1.20;;
37559;SDS011;23398;50.928;7.084;2022-11-15T15:18:29;1.75;;;1.30;;
37559;SDS011;23398;50.928;7.084;2022-11-15T15:20:55;2.25;;;1.27;;
37559;SDS011;23398;50.928;7.084;2022-11-15T15:23:27;1.83;;;1.20;;
37559;SDS011;23398;50.928;7.084;2022-11-15T15:25:55;1.63;;;1.25;;
37559;SDS011;23398;50.928;7.084;2022-11-15T15:28:21;1.58;;;1.30;;
37559;SDS011;23398;50.928;7.084;2022-11-15T15:30:47;1.63;;;1.20;;
37559;SDS011;23398;50.928;7.084;2022-11-15T15:33:14;2.25;;;1.30;;
37559;SDS011;23398;50.928;7.084;2022-11-15T15:35:39;1.75;;;1.23;;
37559;SDS011;23398;50.928;7.084;2022-11-15T15:38:05;1.50;;;1.30;;
37559;SDS011;23398;50.928;7.084;2022-11-15T15:40:31;1.75;;;1.27;;
37559;SDS011;23398;50.928;7.084;2022-11-15T15:42:58;2.47;;;1.25;;
37559;SDS011;23398;50.928;7.084;2022-11-15T15:45:24;1.80;;;1.10;;
37559;SDS011;23398;50.928;7.084;2022-11-15T15:47:51;2.10;;;1.10;;
37559;SDS011;23398;50.928;7.084;2022-11-15T15:50:26;2.20;;;1.27;;
37559;SDS011;23398;50.928;7.084;2022-11-15T15:52:54;2.80;;;1.25;;
37559;SDS011;23398;50.928;7.084;2022-11-15T15:55:21;1.80;;;1.40;;
37559;SDS011;23398;50.928;7.084;2022-11-15T15:57:47;1.27;;;1.10;;
37559;SDS011;23398;50.928;7.084;2022-11-15T16:00:13;2.55;;;1.30;;
37559;SDS011;23398;50.928;7.084;2022-11-15T16:02:39;1.75;;;1.15;;
37559;SDS011;23398;50.928;7.084;2022-11-15T16:05:05;2.03;;;1.25;;
37559;SDS011;23398;50.928;7.084;2022-11-15T16:07:31;1.15;;;1.00;;
37559;SDS011;23398;50.928;7.084;2022-11-15T16:09:56;1.25;;;1.15;;
37559;SDS011;23398;50.928;7.084;2022-11-15T16:12:25;1.65;;;1.00;;
37559;SDS011;23398;50.928;7.084;2022-11-15T16:14:54;1.73;;;1.13;;
37559;SDS011;23398;50.928;7.084;2022-11-15T16:17:21;3.55;;;1.30;;
37559;SDS011;23398;50.928;7.084;2022-11-15T16:19:49;1.83;;;1.10;;
37559;SDS011;23398;50.928;7.084;2022-11-15T16:22:15;1.90;;;1.35;;
37559;SDS011;23398;50.928;7.084;2022-11-15T16:24:40;2.10;;;1.30;;
37559;SDS011;23398;50.928;7.084;2022-11-15T16:27:10;1.60;;;1.30;;
37559;SDS011;23398;50.928;7.084;2022-11-15T16:29:39;1.60;;;1.38;;
37559;SDS011;23398;50.928;7.084;2022-11-15T16:32:04;2.17;;;1.52;;
37559;SDS011;23398;50.928;7.084;2022-11-15T16:34:30;1.60;;;1.50;;
37559;SDS011;23398;50.928;7.084;2022-11-15T16:36:55;1.33;;;1.23;;
37559;SDS011;23398;50.928;7.084;2022-11-15T16:39:21;1.90;;;1.40;;
37559;SDS011;23398;50.928;7.084;2022-11-15T16:41:47;2.55;;;1.40;;
37559;SDS011;23398;50.928;7.084;2022-11-15T16:44:13;2.05;;;1.50;;
37559;SDS011;23398;50.928;7.084;2022-11-15T16:46:40;2.92;;;1.90;;
37559;SDS011;23398;50.928;7.084;2022-11-15T16:49:13;1.80;;;1.40;;
37559;SDS011;23398;50.928;7.084;2022-11-15T16:51:39;2.50;;;1.42;;
37559;SDS011;23398;50.928;7.084;2022-11-15T16:54:06;1.40;;;1.30;;